<?xml version="1.0" encoding="UTF-8" standalone="no" ?>
<gpx xmlns="http://www.topografix.com/GPX/1/1" xmlns:xsi="http://www.w3.org/2001/XMLSchema-instance" xsi:schemaLocation="http://www.topografix.com/GPX/1/1 http://www.topografix.com/GPX/1/1/gpx.xsd" version="1.1" creator="VisuGPX - https://www.visugpx.com">
  <metadata>
    <name>montillot tameron Bois d'arcy </name>
    <desc><![CDATA[montillot tameron Bois d'arcy
Dist 11km.dev+140m
Parking gymnaste montillot ]]></desc>
  </metadata>
  <trk>
    <name><![CDATA[Mont tameron arcy]]></name>
    <extensions>
      <line xmlns="http://www.topografix.com/GPX/gpx_style/0/2">
        <color>0000FF</color>
        <width>4</width>
      </line>
    </extensions>
    <trkseg>
      <trkpt lat="47.51974" lon="3.71858">
        <ele>226</ele>
        <time>2021-06-28T17:00:21+02:00</time>
      </trkpt>
      <trkpt lat="47.519" lon="3.71997">
        <ele>233</ele>
        <time>2021-06-28T17:00:26+02:00</time>
      </trkpt>
      <trkpt lat="47.51966" lon="3.7185">
        <ele>227</ele>
        <time>2021-06-28T17:00:31+02:00</time>
      </trkpt>
      <trkpt lat="47.51997" lon="3.71962">
        <ele>226</ele>
        <time>2021-06-28T17:00:36+02:00</time>
      </trkpt>
      <trkpt lat="47.51986" lon="3.72045">
        <ele>227</ele>
        <time>2021-06-28T17:00:41+02:00</time>
      </trkpt>
      <trkpt lat="47.52089" lon="3.72095">
        <ele>221</ele>
        <time>2021-06-28T17:00:46+02:00</time>
      </trkpt>
      <trkpt lat="47.5222" lon="3.72069">
        <ele>216</ele>
        <time>2021-06-28T17:00:51+02:00</time>
      </trkpt>
      <trkpt lat="47.52295" lon="3.7204">
        <ele>216</ele>
        <time>2021-06-28T17:00:56+02:00</time>
      </trkpt>
      <trkpt lat="47.52411" lon="3.72122">
        <ele>214</ele>
        <time>2021-06-28T17:01:01+02:00</time>
      </trkpt>
      <trkpt lat="47.52525" lon="3.72173">
        <ele>214</ele>
        <time>2021-06-28T17:01:06+02:00</time>
      </trkpt>
      <trkpt lat="47.52628" lon="3.72125">
        <ele>212</ele>
        <time>2021-06-28T17:01:11+02:00</time>
      </trkpt>
      <trkpt lat="47.5269" lon="3.72127">
        <ele>212</ele>
        <time>2021-06-28T17:01:16+02:00</time>
      </trkpt>
      <trkpt lat="47.52768" lon="3.72157">
        <ele>210</ele>
        <time>2021-06-28T17:01:21+02:00</time>
      </trkpt>
      <trkpt lat="47.5303" lon="3.72193">
        <ele>211</ele>
        <time>2021-06-28T17:01:26+02:00</time>
      </trkpt>
      <trkpt lat="47.53164" lon="3.72213">
        <ele>210</ele>
        <time>2021-06-28T17:01:31+02:00</time>
      </trkpt>
      <trkpt lat="47.53288" lon="3.72251">
        <ele>212</ele>
        <time>2021-06-28T17:01:36+02:00</time>
      </trkpt>
      <trkpt lat="47.53407" lon="3.72248">
        <ele>217</ele>
        <time>2021-06-28T17:01:41+02:00</time>
      </trkpt>
      <trkpt lat="47.53489" lon="3.7226">
        <ele>220</ele>
        <time>2021-06-28T17:01:46+02:00</time>
      </trkpt>
      <trkpt lat="47.53539" lon="3.72313">
        <ele>219</ele>
        <time>2021-06-28T17:01:51+02:00</time>
      </trkpt>
      <trkpt lat="47.53616" lon="3.72345">
        <ele>218</ele>
        <time>2021-06-28T17:01:56+02:00</time>
      </trkpt>
      <trkpt lat="47.53672" lon="3.72447">
        <ele>210</ele>
        <time>2021-06-28T17:02:01+02:00</time>
      </trkpt>
      <trkpt lat="47.53768" lon="3.72559">
        <ele>199</ele>
        <time>2021-06-28T17:02:06+02:00</time>
      </trkpt>
      <trkpt lat="47.53806" lon="3.72631">
        <ele>200</ele>
        <time>2021-06-28T17:02:11+02:00</time>
      </trkpt>
      <trkpt lat="47.53852" lon="3.72665">
        <ele>200</ele>
        <time>2021-06-28T17:02:16+02:00</time>
      </trkpt>
      <trkpt lat="47.53924" lon="3.72637">
        <ele>200</ele>
        <time>2021-06-28T17:02:21+02:00</time>
      </trkpt>
      <trkpt lat="47.53963" lon="3.72627">
        <ele>200</ele>
        <time>2021-06-28T17:02:26+02:00</time>
      </trkpt>
      <trkpt lat="47.54059" lon="3.72671">
        <ele>205</ele>
        <time>2021-06-28T17:02:31+02:00</time>
      </trkpt>
      <trkpt lat="47.54194" lon="3.727">
        <ele>203</ele>
        <time>2021-06-28T17:02:36+02:00</time>
      </trkpt>
      <trkpt lat="47.5429" lon="3.7273">
        <ele>201</ele>
        <time>2021-06-28T17:02:41+02:00</time>
      </trkpt>
      <trkpt lat="47.54389" lon="3.72728">
        <ele>205</ele>
        <time>2021-06-28T17:02:46+02:00</time>
      </trkpt>
      <trkpt lat="47.54333" lon="3.73179">
        <ele>213</ele>
        <time>2021-06-28T17:02:51+02:00</time>
      </trkpt>
      <trkpt lat="47.54404" lon="3.73227">
        <ele>219</ele>
        <time>2021-06-28T17:02:56+02:00</time>
      </trkpt>
      <trkpt lat="47.54459" lon="3.73383">
        <ele>228</ele>
        <time>2021-06-28T17:03:01+02:00</time>
      </trkpt>
      <trkpt lat="47.54537" lon="3.73177">
        <ele>237</ele>
        <time>2021-06-28T17:03:06+02:00</time>
      </trkpt>
      <trkpt lat="47.54595" lon="3.72972">
        <ele>240</ele>
        <time>2021-06-28T17:03:11+02:00</time>
      </trkpt>
      <trkpt lat="47.54639" lon="3.72747">
        <ele>240</ele>
        <time>2021-06-28T17:03:16+02:00</time>
      </trkpt>
      <trkpt lat="47.54678" lon="3.72636">
        <ele>237</ele>
        <time>2021-06-28T17:03:21+02:00</time>
      </trkpt>
      <trkpt lat="47.54722" lon="3.72542">
        <ele>233</ele>
        <time>2021-06-28T17:03:26+02:00</time>
      </trkpt>
      <trkpt lat="47.54757" lon="3.7247">
        <ele>228</ele>
        <time>2021-06-28T17:03:31+02:00</time>
      </trkpt>
      <trkpt lat="47.54796" lon="3.72392">
        <ele>225</ele>
        <time>2021-06-28T17:03:36+02:00</time>
      </trkpt>
      <trkpt lat="47.5482" lon="3.72312">
        <ele>222</ele>
        <time>2021-06-28T17:03:41+02:00</time>
      </trkpt>
      <trkpt lat="47.54816" lon="3.72227">
        <ele>214</ele>
        <time>2021-06-28T17:03:46+02:00</time>
      </trkpt>
      <trkpt lat="47.54846" lon="3.72205">
        <ele>215</ele>
        <time>2021-06-28T17:03:51+02:00</time>
      </trkpt>
      <trkpt lat="47.54846" lon="3.72159">
        <ele>210</ele>
        <time>2021-06-28T17:03:56+02:00</time>
      </trkpt>
      <trkpt lat="47.54877" lon="3.72159">
        <ele>212</ele>
        <time>2021-06-28T17:04:01+02:00</time>
      </trkpt>
      <trkpt lat="47.54872" lon="3.72091">
        <ele>202</ele>
        <time>2021-06-28T17:04:06+02:00</time>
      </trkpt>
      <trkpt lat="47.54848" lon="3.72033">
        <ele>195</ele>
        <time>2021-06-28T17:04:11+02:00</time>
      </trkpt>
      <trkpt lat="47.54815" lon="3.71968">
        <ele>192</ele>
        <time>2021-06-28T17:04:16+02:00</time>
      </trkpt>
      <trkpt lat="47.54749" lon="3.71892">
        <ele>195</ele>
        <time>2021-06-28T17:04:21+02:00</time>
      </trkpt>
      <trkpt lat="47.54759" lon="3.71795">
        <ele>194</ele>
        <time>2021-06-28T17:04:26+02:00</time>
      </trkpt>
      <trkpt lat="47.54766" lon="3.71743">
        <ele>194</ele>
        <time>2021-06-28T17:04:31+02:00</time>
      </trkpt>
      <trkpt lat="47.54666" lon="3.71623">
        <ele>201</ele>
        <time>2021-06-28T17:04:36+02:00</time>
      </trkpt>
      <trkpt lat="47.54615" lon="3.71544">
        <ele>202</ele>
        <time>2021-06-28T17:04:41+02:00</time>
      </trkpt>
      <trkpt lat="47.54566" lon="3.71532">
        <ele>203</ele>
        <time>2021-06-28T17:04:46+02:00</time>
      </trkpt>
      <trkpt lat="47.5452" lon="3.7157">
        <ele>204</ele>
        <time>2021-06-28T17:04:51+02:00</time>
      </trkpt>
      <trkpt lat="47.54463" lon="3.71614">
        <ele>204</ele>
        <time>2021-06-28T17:04:56+02:00</time>
      </trkpt>
      <trkpt lat="47.54385" lon="3.71542">
        <ele>204</ele>
        <time>2021-06-28T17:05:01+02:00</time>
      </trkpt>
      <trkpt lat="47.54271" lon="3.71476">
        <ele>206</ele>
        <time>2021-06-28T17:05:06+02:00</time>
      </trkpt>
      <trkpt lat="47.54173" lon="3.7149">
        <ele>207</ele>
        <time>2021-06-28T17:05:11+02:00</time>
      </trkpt>
      <trkpt lat="47.54181" lon="3.71369">
        <ele>209</ele>
        <time>2021-06-28T17:05:16+02:00</time>
      </trkpt>
      <trkpt lat="47.54197" lon="3.71201">
        <ele>214</ele>
        <time>2021-06-28T17:05:21+02:00</time>
      </trkpt>
      <trkpt lat="47.5419" lon="3.71109">
        <ele>211</ele>
        <time>2021-06-28T17:05:26+02:00</time>
      </trkpt>
      <trkpt lat="47.54167" lon="3.70943">
        <ele>214</ele>
        <time>2021-06-28T17:05:31+02:00</time>
      </trkpt>
      <trkpt lat="47.54135" lon="3.70937">
        <ele>215</ele>
        <time>2021-06-28T17:05:36+02:00</time>
      </trkpt>
      <trkpt lat="47.5414" lon="3.70889">
        <ele>219</ele>
        <time>2021-06-28T17:05:41+02:00</time>
      </trkpt>
      <trkpt lat="47.54145" lon="3.70835">
        <ele>223</ele>
        <time>2021-06-28T17:05:46+02:00</time>
      </trkpt>
      <trkpt lat="47.54129" lon="3.70759">
        <ele>236</ele>
        <time>2021-06-28T17:05:51+02:00</time>
      </trkpt>
      <trkpt lat="47.54124" lon="3.70697">
        <ele>242</ele>
        <time>2021-06-28T17:05:56+02:00</time>
      </trkpt>
      <trkpt lat="47.54058" lon="3.70649">
        <ele>245</ele>
        <time>2021-06-28T17:06:01+02:00</time>
      </trkpt>
      <trkpt lat="47.54008" lon="3.70597">
        <ele>248</ele>
        <time>2021-06-28T17:06:06+02:00</time>
      </trkpt>
      <trkpt lat="47.53926" lon="3.70523">
        <ele>251</ele>
        <time>2021-06-28T17:06:11+02:00</time>
      </trkpt>
      <trkpt lat="47.53853" lon="3.70481">
        <ele>252</ele>
        <time>2021-06-28T17:06:16+02:00</time>
      </trkpt>
      <trkpt lat="47.53788" lon="3.70429">
        <ele>255</ele>
        <time>2021-06-28T17:06:21+02:00</time>
      </trkpt>
      <trkpt lat="47.53722" lon="3.70351">
        <ele>258</ele>
        <time>2021-06-28T17:06:26+02:00</time>
      </trkpt>
      <trkpt lat="47.53539" lon="3.70358">
        <ele>253</ele>
        <time>2021-06-28T17:06:31+02:00</time>
      </trkpt>
      <trkpt lat="47.53483" lon="3.70292">
        <ele>251</ele>
        <time>2021-06-28T17:06:36+02:00</time>
      </trkpt>
      <trkpt lat="47.53401" lon="3.70258">
        <ele>243</ele>
        <time>2021-06-28T17:06:41+02:00</time>
      </trkpt>
      <trkpt lat="47.53382" lon="3.70228">
        <ele>241</ele>
        <time>2021-06-28T17:06:46+02:00</time>
      </trkpt>
      <trkpt lat="47.53348" lon="3.70257">
        <ele>236</ele>
        <time>2021-06-28T17:06:51+02:00</time>
      </trkpt>
      <trkpt lat="47.53373" lon="3.70317">
        <ele>237</ele>
        <time>2021-06-28T17:06:56+02:00</time>
      </trkpt>
      <trkpt lat="47.53384" lon="3.70406">
        <ele>236</ele>
        <time>2021-06-28T17:07:01+02:00</time>
      </trkpt>
      <trkpt lat="47.53432" lon="3.70499">
        <ele>237</ele>
        <time>2021-06-28T17:07:06+02:00</time>
      </trkpt>
      <trkpt lat="47.53477" lon="3.70587">
        <ele>236</ele>
        <time>2021-06-28T17:07:11+02:00</time>
      </trkpt>
      <trkpt lat="47.53485" lon="3.70676">
        <ele>238</ele>
        <time>2021-06-28T17:07:16+02:00</time>
      </trkpt>
      <trkpt lat="47.53514" lon="3.7076">
        <ele>239</ele>
        <time>2021-06-28T17:07:21+02:00</time>
      </trkpt>
      <trkpt lat="47.53561" lon="3.70877">
        <ele>237</ele>
        <time>2021-06-28T17:07:26+02:00</time>
      </trkpt>
      <trkpt lat="47.53443" lon="3.70915">
        <ele>249</ele>
        <time>2021-06-28T17:07:31+02:00</time>
      </trkpt>
      <trkpt lat="47.53347" lon="3.70967">
        <ele>253</ele>
        <time>2021-06-28T17:07:36+02:00</time>
      </trkpt>
      <trkpt lat="47.53284" lon="3.70967">
        <ele>254</ele>
        <time>2021-06-28T17:07:41+02:00</time>
      </trkpt>
      <trkpt lat="47.53151" lon="3.71038">
        <ele>254</ele>
        <time>2021-06-28T17:07:46+02:00</time>
      </trkpt>
      <trkpt lat="47.52986" lon="3.71013">
        <ele>259</ele>
        <time>2021-06-28T17:07:51+02:00</time>
      </trkpt>
      <trkpt lat="47.52905" lon="3.71051">
        <ele>258</ele>
        <time>2021-06-28T17:07:56+02:00</time>
      </trkpt>
      <trkpt lat="47.52736" lon="3.7092">
        <ele>265</ele>
        <time>2021-06-28T17:08:01+02:00</time>
      </trkpt>
      <trkpt lat="47.52555" lon="3.70812">
        <ele>275</ele>
        <time>2021-06-28T17:08:06+02:00</time>
      </trkpt>
      <trkpt lat="47.5248" lon="3.70675">
        <ele>276</ele>
        <time>2021-06-28T17:08:11+02:00</time>
      </trkpt>
      <trkpt lat="47.5241" lon="3.70575">
        <ele>276</ele>
        <time>2021-06-28T17:08:16+02:00</time>
      </trkpt>
      <trkpt lat="47.52384" lon="3.7047">
        <ele>269</ele>
        <time>2021-06-28T17:08:21+02:00</time>
      </trkpt>
      <trkpt lat="47.52304" lon="3.70383">
        <ele>262</ele>
        <time>2021-06-28T17:08:26+02:00</time>
      </trkpt>
      <trkpt lat="47.52232" lon="3.70482">
        <ele>261</ele>
        <time>2021-06-28T17:08:31+02:00</time>
      </trkpt>
      <trkpt lat="47.52199" lon="3.70642">
        <ele>264</ele>
        <time>2021-06-28T17:08:36+02:00</time>
      </trkpt>
      <trkpt lat="47.5215" lon="3.70782">
        <ele>264</ele>
        <time>2021-06-28T17:08:41+02:00</time>
      </trkpt>
      <trkpt lat="47.52103" lon="3.70946">
        <ele>267</ele>
        <time>2021-06-28T17:08:46+02:00</time>
      </trkpt>
      <trkpt lat="47.52096" lon="3.71114">
        <ele>263</ele>
        <time>2021-06-28T17:08:51+02:00</time>
      </trkpt>
      <trkpt lat="47.52139" lon="3.71331">
        <ele>254</ele>
        <time>2021-06-28T17:08:56+02:00</time>
      </trkpt>
      <trkpt lat="47.52152" lon="3.71434">
        <ele>244</ele>
        <time>2021-06-28T17:09:01+02:00</time>
      </trkpt>
      <trkpt lat="47.52134" lon="3.71578">
        <ele>230</ele>
        <time>2021-06-28T17:09:06+02:00</time>
      </trkpt>
      <trkpt lat="47.52055" lon="3.71677">
        <ele>225</ele>
        <time>2021-06-28T17:09:11+02:00</time>
      </trkpt>
      <trkpt lat="47.5199" lon="3.71799">
        <ele>225</ele>
        <time>2021-06-28T17:09:16+02:00</time>
      </trkpt>
      <trkpt lat="47.51872" lon="3.71971">
        <ele>233</ele>
        <time>2021-06-28T17:09:21+02:00</time>
      </trkpt>
    </trkseg>
  </trk>
</gpx>